createdAt,value
2022-11-16T00:01:40.399Z,95.20
2022-11-16T00:04:10.030Z,95.10
2022-11-16T00:06:37.632Z,94.70
2022-11-16T00:09:23.040Z,94.40
2022-11-16T00:11:54.958Z,94.00
2022-11-16T00:14:23.356Z,93.80
2022-11-16T00:16:51.328Z,93.90
2022-11-16T00:19:19.365Z,94.00
2022-11-16T00:21:47.078Z,94.00
2022-11-16T00:24:15.673Z,94.00
2022-11-16T00:26:43.359Z,93.90
2022-11-16T00:29:19.851Z,93.30
2022-11-16T00:34:55.633Z,93.90
2022-11-16T00:37:23.136Z,93.90
2022-11-16T00:42:28.316Z,94.00
2022-11-16T00:44:55.947Z,93.90
2022-11-16T00:47:33.664Z,93.80
2022-11-16T00:50:01.343Z,93.80
2022-11-16T00:52:28.935Z,93.50
2022-11-16T00:54:57.127Z,93.40
2022-11-16T00:57:24.939Z,93.40
2022-11-16T00:59:52.526Z,93.20
2022-11-16T01:02:20.299Z,93.20
2022-11-16T01:04:49.064Z,93.10
2022-11-16T01:07:16.978Z,93.20
2022-11-16T01:09:44.843Z,92.80
2022-11-16T01:12:16.471Z,92.90
2022-11-16T01:14:45.806Z,92.80
2022-11-16T01:17:14.689Z,92.80
2022-11-16T01:19:42.439Z,92.70
2022-11-16T01:22:10.328Z,92.70
2022-11-16T01:24:38.686Z,92.50
2022-11-16T01:27:06.591Z,92.40
2022-11-16T01:29:34.120Z,92.20
2022-11-16T01:32:01.671Z,92.20
2022-11-16T01:34:29.243Z,92.20
2022-11-16T01:36:57.242Z,92.20
2022-11-16T01:39:24.823Z,92.00
2022-11-16T01:41:52.406Z,91.90
2022-11-16T01:44:31.975Z,91.80
2022-11-16T01:47:06.585Z,91.70
2022-11-16T01:49:37.073Z,91.50
2022-11-16T01:52:13.766Z,91.40
2022-11-16T01:54:43.303Z,91.40
2022-11-16T01:57:14.335Z,91.40
2022-11-16T01:59:42.946Z,91.30
2022-11-16T02:02:10.502Z,91.30
2022-11-16T02:04:38.090Z,91.30
2022-11-16T02:07:05.958Z,91.30
2022-11-16T02:09:51.883Z,91.20
2022-11-16T02:12:36.916Z,91.20
2022-11-16T02:15:07.551Z,91.10
2022-11-16T02:17:38.354Z,90.90
2022-11-16T02:20:21.258Z,90.90
2022-11-16T02:22:58.005Z,90.90
2022-11-16T02:25:31.501Z,90.70
2022-11-16T02:28:18.053Z,90.80
2022-11-16T02:30:48.287Z,90.70
2022-11-16T02:33:19.225Z,90.70
2022-11-16T02:35:48.789Z,90.60
2022-11-16T02:38:24.567Z,90.60
2022-11-16T02:43:41.943Z,90.50
2022-11-16T02:46:29.593Z,90.60
2022-11-16T02:48:59.182Z,90.50
2022-11-16T02:51:28.914Z,90.50
2022-11-16T02:54:09.355Z,90.40
2022-11-16T02:56:57.283Z,90.30
2022-11-16T02:59:27.793Z,90.40
2022-11-16T03:02:25.274Z,90.40
2022-11-16T03:05:11.162Z,90.30
2022-11-16T03:07:43.128Z,90.00
2022-11-16T03:10:33.193Z,90.10
2022-11-16T03:13:02.051Z,90.10
2022-11-16T03:15:31.071Z,89.80
2022-11-16T03:17:59.794Z,90.00
2022-11-16T03:20:29.371Z,90.00
2022-11-16T03:23:08.103Z,89.90
2022-11-16T03:25:55.740Z,88.90
2022-11-16T03:28:25.799Z,89.00
2022-11-16T03:30:56.022Z,89.30
2022-11-16T03:33:29.061Z,89.30
2022-11-16T03:36:15.118Z,88.90
2022-11-16T03:38:45.777Z,88.60
2022-11-16T03:41:15.748Z,89.30
2022-11-16T03:43:45.654Z,89.30
2022-11-16T03:46:14.178Z,88.90
2022-11-16T03:48:42.748Z,87.40
2022-11-16T03:51:11.165Z,87.50
2022-11-16T03:53:41.816Z,86.30
2022-11-16T03:56:09.800Z,87.20
2022-11-16T03:58:37.413Z,86.80
2022-11-16T04:01:05.347Z,87.20
2022-11-16T04:03:38.268Z,86.10
2022-11-16T04:06:24.700Z,86.60
2022-11-16T04:09:13.510Z,86.90
2022-11-16T04:11:59.198Z,87.10
2022-11-16T04:14:46.634Z,87.20
2022-11-16T04:17:33.216Z,87.50
2022-11-16T04:20:19.184Z,86.60
2022-11-16T04:23:16.442Z,85.70
2022-11-16T04:25:58.442Z,85.90
2022-11-16T04:28:28.089Z,85.70
2022-11-16T04:31:18.033Z,85.30
2022-11-16T04:34:04.511Z,84.80
2022-11-16T04:36:53.386Z,85.70
2022-11-16T04:39:21.768Z,84.50
2022-11-16T04:42:09.062Z,84.90
2022-11-16T04:44:55.343Z,85.50
2022-11-16T04:47:26.038Z,84.50
2022-11-16T04:50:00.086Z,85.70
2022-11-16T04:52:27.780Z,85.50
2022-11-16T04:55:09.374Z,86.70
2022-11-16T04:57:36.956Z,86.70
2022-11-16T05:00:05.611Z,85.70
2022-11-16T05:02:36.440Z,85.90
2022-11-16T05:05:07.173Z,84.30
2022-11-16T05:07:37.881Z,83.20
2022-11-16T05:10:07.842Z,84.60
2022-11-16T05:12:50.135Z,85.50
2022-11-16T05:15:37.906Z,85.20
2022-11-16T05:18:11.597Z,83.90
2022-11-16T05:20:57.994Z,81.60
2022-11-16T05:23:43.787Z,84.30
2022-11-16T05:26:12.898Z,83.70
2022-11-16T05:28:40.551Z,81.40
2022-11-16T05:31:08.950Z,80.60
2022-11-16T05:33:36.530Z,80.50
2022-11-16T05:36:04.693Z,82.40
2022-11-16T05:38:33.493Z,80.50
2022-11-16T05:41:01.321Z,81.60
2022-11-16T05:43:29.822Z,82.30
2022-11-16T05:45:58.293Z,83.20
2022-11-16T05:48:26.502Z,82.90
2022-11-16T05:50:58.329Z,83.00
2022-11-16T05:53:26.682Z,83.00
2022-11-16T05:55:54.288Z,81.30
2022-11-16T05:58:22.619Z,82.90
2022-11-16T06:00:51.286Z,81.40
2022-11-16T06:03:19.142Z,80.80
2022-11-16T06:05:46.978Z,81.60
2022-11-16T06:08:15.233Z,82.00
2022-11-16T06:10:42.733Z,82.90
2022-11-16T06:13:10.332Z,82.00
2022-11-16T06:15:38.703Z,77.60
2022-11-16T06:18:06.301Z,79.50
2022-11-16T06:20:34.126Z,80.40
2022-11-16T06:23:01.710Z,79.70
2022-11-16T06:25:31.864Z,81.70
2022-11-16T06:28:01.991Z,81.80
2022-11-16T06:30:32.894Z,80.00
2022-11-16T06:33:00.433Z,79.30
2022-11-16T06:35:27.934Z,79.40
2022-11-16T06:37:56.544Z,78.90
2022-11-16T06:40:24.196Z,79.80
2022-11-16T06:42:51.724Z,76.70
2022-11-16T06:45:19.268Z,77.70
2022-11-16T06:47:47.331Z,76.40
2022-11-16T06:50:14.855Z,76.00
2022-11-16T06:52:42.381Z,75.70
2022-11-16T06:55:10.103Z,76.30
2022-11-16T06:57:37.618Z,77.50
2022-11-16T07:00:05.362Z,79.10
2022-11-16T07:02:32.862Z,77.10
2022-11-16T07:05:03.504Z,79.10
2022-11-16T07:07:32.215Z,79.70
2022-11-16T07:10:00.838Z,78.60
2022-11-16T07:12:28.286Z,76.10
2022-11-16T07:14:55.852Z,76.70
2022-11-16T07:17:23.391Z,75.10
2022-11-16T07:19:51.647Z,74.80
2022-11-16T07:22:19.243Z,76.20
2022-11-16T07:24:47.025Z,73.90
2022-11-16T07:27:17.082Z,75.20
2022-11-16T07:29:44.573Z,76.30
2022-11-16T07:32:12.087Z,76.30
2022-11-16T07:34:42.837Z,73.70
2022-11-16T07:37:10.536Z,74.70
2022-11-16T07:39:38.313Z,75.80
2022-11-16T07:42:11.829Z,76.70
2022-11-16T07:44:39.769Z,78.40
2022-11-16T07:47:07.387Z,77.80
2022-11-16T07:49:36.304Z,77.80
2022-11-16T07:52:04.122Z,73.50
2022-11-16T07:54:31.698Z,74.60
2022-11-16T07:56:59.311Z,74.70
2022-11-16T07:59:28.573Z,75.80
2022-11-16T08:01:59.496Z,74.90
2022-11-16T08:04:27.612Z,75.30
2022-11-16T08:06:55.978Z,75.80
2022-11-16T08:09:23.667Z,74.00
2022-11-16T08:11:52.011Z,75.80
2022-11-16T08:14:19.757Z,76.10
2022-11-16T08:16:47.255Z,76.60
2022-11-16T08:19:14.896Z,76.60
2022-11-16T08:21:45.535Z,75.10
2022-11-16T08:24:16.961Z,75.30
2022-11-16T08:26:44.641Z,75.20
2022-11-16T08:29:12.178Z,75.10
2022-11-16T08:31:42.349Z,74.70
2022-11-16T08:34:09.872Z,75.50
2022-11-16T08:36:38.269Z,77.70
2022-11-16T08:39:05.914Z,77.30
2022-11-16T08:41:38.994Z,77.10
2022-11-16T08:44:06.660Z,76.50
2022-11-16T08:46:43.574Z,76.00
2022-11-16T08:49:11.179Z,77.50
2022-11-16T08:51:39.034Z,76.60
2022-11-16T08:54:06.595Z,77.30
2022-11-16T08:56:34.254Z,76.10
2022-11-16T08:59:01.762Z,74.90
2022-11-16T09:01:30.441Z,75.80
2022-11-16T09:03:58.068Z,73.80
2022-11-16T09:06:27.138Z,76.60
2022-11-16T09:08:54.995Z,76.40
2022-11-16T09:11:23.960Z,75.10
2022-11-16T09:13:52.918Z,77.20
2022-11-16T09:16:21.237Z,76.20
2022-11-16T09:18:50.214Z,75.20
2022-11-16T09:21:19.213Z,75.50
2022-11-16T09:23:47.176Z,77.70
2022-11-16T09:26:16.814Z,76.60
2022-11-16T09:28:47.429Z,76.60
2022-11-16T09:31:21.885Z,76.30
2022-11-16T09:33:56.597Z,76.00
2022-11-16T09:36:24.324Z,76.50
2022-11-16T09:39:25.861Z,77.10
2022-11-16T09:41:54.370Z,76.60
2022-11-16T09:44:41.321Z,76.60
2022-11-16T09:47:16.718Z,76.80
2022-11-16T09:49:46.629Z,76.50
2022-11-16T09:52:36.699Z,77.10
2022-11-16T09:55:20.928Z,76.70
2022-11-16T09:57:49.122Z,76.60
2022-11-16T10:00:19.859Z,76.50
2022-11-16T10:02:57.560Z,76.30
2022-11-16T10:05:28.218Z,76.00
2022-11-16T10:08:00.655Z,76.30
2022-11-16T10:10:28.240Z,76.30
2022-11-16T10:13:01.101Z,76.50
2022-11-16T10:15:31.804Z,76.70
2022-11-16T10:17:59.290Z,76.90
2022-11-16T10:20:30.722Z,76.80
2022-11-16T10:23:17.884Z,77.10
2022-11-16T10:25:46.610Z,77.10
2022-11-16T10:28:22.329Z,77.30
2022-11-16T10:31:15.537Z,76.80
2022-11-16T10:33:44.742Z,77.20
2022-11-16T10:36:14.688Z,77.30
2022-11-16T10:38:43.575Z,77.70
2022-11-16T10:41:19.502Z,77.60
2022-11-16T10:43:47.820Z,77.60
2022-11-16T10:46:21.159Z,77.20
2022-11-16T10:48:48.666Z,77.60
2022-11-16T10:51:16.195Z,77.80
2022-11-16T10:53:44.564Z,78.00
2022-11-16T10:56:18.931Z,78.30
2022-11-16T10:58:49.818Z,78.50
2022-11-16T11:01:37.475Z,78.60
2022-11-16T11:04:17.407Z,78.70
2022-11-16T11:06:45.707Z,78.70
2022-11-16T11:09:24.219Z,78.90
2022-11-16T11:12:28.749Z,79.00
2022-11-16T11:15:00.679Z,79.00
2022-11-16T11:17:28.857Z,79.30
2022-11-16T11:20:00.902Z,79.50
2022-11-16T11:22:29.904Z,79.60
2022-11-16T11:24:57.721Z,79.90
2022-11-16T11:27:27.335Z,80.10
2022-11-16T11:29:56.136Z,80.10
2022-11-16T11:32:32.467Z,80.40
2022-11-16T11:35:01.279Z,80.60
2022-11-16T11:37:34.327Z,80.60
2022-11-16T11:40:05.677Z,80.70
2022-11-16T11:42:33.254Z,80.80
2022-11-16T11:45:03.982Z,81.00
2022-11-16T11:50:37.457Z,81.10
2022-11-16T11:53:11.948Z,81.20
2022-11-16T11:55:39.535Z,81.30
2022-11-16T11:58:11.817Z,81.30
2022-11-16T12:00:54.633Z,81.30
2022-11-16T12:03:33.860Z,81.40
2022-11-16T12:06:14.656Z,81.60
2022-11-16T12:08:48.342Z,81.70
2022-11-16T12:11:25.611Z,81.70
2022-11-16T12:13:55.969Z,81.80
2022-11-16T12:16:52.749Z,82.00
2022-11-16T12:19:29.630Z,82.10
2022-11-16T12:21:57.234Z,82.20
2022-11-16T12:24:50.614Z,82.40
2022-11-16T12:27:30.116Z,82.50
2022-11-16T12:30:16.043Z,82.60
2022-11-16T12:33:02.054Z,82.70
2022-11-16T12:35:42.840Z,82.90
2022-11-16T12:38:26.556Z,83.10
2022-11-16T12:41:00.287Z,83.20
2022-11-16T12:43:46.424Z,83.30
2022-11-16T12:46:23.076Z,83.50
2022-11-16T12:48:50.527Z,83.60
2022-11-16T12:51:28.789Z,83.70
2022-11-16T12:54:17.363Z,83.90
2022-11-16T12:56:49.257Z,84.10
2022-11-16T12:59:29.198Z,84.10
2022-11-16T13:02:00.751Z,84.40
2022-11-16T13:04:34.155Z,84.80
2022-11-16T13:07:12.744Z,85.20
2022-11-16T13:09:46.783Z,85.40
2022-11-16T13:12:17.366Z,85.80
2022-11-16T13:14:46.316Z,85.80
2022-11-16T13:17:24.663Z,86.10
2022-11-16T13:20:10.221Z,86.50
2022-11-16T13:22:45.162Z,86.30
2022-11-16T13:25:19.393Z,86.40
2022-11-16T13:27:55.837Z,86.40
2022-11-16T13:30:25.158Z,87.40
2022-11-16T13:33:10.943Z,87.20
2022-11-16T13:35:38.765Z,87.20
2022-11-16T13:38:12.539Z,87.30
2022-11-16T13:40:40.819Z,87.90
2022-11-16T13:43:11.057Z,88.50
2022-11-16T13:45:51.433Z,88.50
2022-11-16T13:48:24.130Z,88.60
2022-11-16T13:50:53.945Z,88.60
2022-11-16T13:54:25.140Z,88.50
2022-11-16T13:56:17.608Z,88.70
2022-11-16T13:58:49.742Z,88.50
2022-11-16T14:01:18.151Z,89.40
2022-11-16T14:03:45.693Z,89.80
2022-11-16T14:06:25.299Z,89.40
2022-11-16T14:08:54.076Z,89.20
2022-11-16T14:11:27.538Z,89.30
2022-11-16T14:13:55.013Z,88.90
2022-11-16T14:16:22.948Z,89.10
2022-11-16T14:18:50.472Z,89.00
2022-11-16T14:21:22.076Z,88.80
2022-11-16T14:23:52.712Z,88.70
2022-11-16T14:26:26.259Z,89.00
2022-11-16T14:29:03.929Z,88.80
2022-11-16T14:31:52.576Z,88.70
2022-11-16T14:34:32.441Z,88.50
2022-11-16T14:37:00.893Z,88.60
2022-11-16T14:39:31.423Z,88.40
2022-11-16T14:42:15.788Z,88.30
2022-11-16T14:44:43.982Z,88.40
2022-11-16T14:47:23.504Z,88.30
2022-11-16T14:49:51.295Z,88.30
2022-11-16T14:52:21.339Z,88.30
2022-11-16T14:54:51.742Z,88.40
2022-11-16T14:57:23.477Z,88.50
2022-11-16T15:00:08.582Z,88.50
2022-11-16T15:02:37.460Z,88.90
2022-11-16T15:05:05.181Z,88.90
2022-11-16T15:07:33.066Z,89.00
2022-11-16T15:10:00.940Z,88.90
2022-11-16T15:12:42.736Z,88.70
2022-11-16T15:15:13.061Z,88.60
2022-11-16T15:17:41.756Z,88.60
2022-11-16T15:20:22.616Z,88.60
2022-11-16T15:22:55.479Z,88.70
2022-11-16T15:25:25.813Z,88.60
2022-11-16T15:27:53.791Z,88.90
2022-11-16T15:30:21.296Z,88.90
2022-11-16T15:32:50.626Z,88.90
2022-11-16T15:35:20.652Z,89.20
2022-11-16T15:37:48.193Z,89.40
2022-11-16T15:40:16.158Z,89.70
2022-11-16T15:42:44.190Z,89.70
2022-11-16T15:45:21.163Z,89.90
2022-11-16T15:47:49.709Z,90.00
2022-11-16T15:50:19.523Z,90.10
2022-11-16T15:52:50.429Z,90.30
2022-11-16T15:55:31.945Z,90.20
2022-11-16T15:58:01.079Z,90.30
2022-11-16T16:00:29.665Z,90.50
2022-11-16T16:03:01.484Z,90.50
2022-11-16T16:05:39.225Z,90.30
2022-11-16T16:08:23.045Z,90.30
2022-11-16T16:11:00.603Z,90.40
2022-11-16T16:13:33.335Z,90.40
2022-11-16T16:16:19.693Z,90.50
2022-11-16T16:18:47.422Z,90.50
2022-11-16T16:21:14.887Z,90.60
2022-11-16T16:23:49.801Z,90.70
2022-11-16T16:26:17.708Z,90.80
2022-11-16T16:28:45.389Z,90.70
2022-11-16T16:31:13.264Z,91.00
2022-11-16T16:33:41.128Z,90.80
2022-11-16T16:36:11.711Z,90.80
2022-11-16T16:38:39.161Z,90.90
2022-11-16T16:41:07.193Z,91.00
2022-11-16T16:43:35.498Z,91.00
2022-11-16T16:46:04.148Z,91.10
2022-11-16T16:48:31.713Z,91.00
2022-11-16T16:50:59.300Z,91.20
2022-11-16T16:53:26.850Z,91.20
2022-11-16T16:55:54.306Z,91.20
2022-11-16T16:58:21.777Z,91.10
2022-11-16T17:00:49.535Z,91.30
2022-11-16T17:03:17.097Z,91.30
2022-11-16T17:05:44.810Z,91.70
2022-11-16T17:08:12.370Z,91.40
2022-11-16T17:10:39.864Z,91.50
2022-11-16T17:13:07.375Z,91.60
2022-11-16T17:15:34.854Z,91.70
2022-11-16T17:18:03.073Z,91.70
2022-11-16T17:20:30.575Z,91.80
2022-11-16T17:22:58.359Z,91.90
2022-11-16T17:25:25.884Z,91.90
2022-11-16T17:27:53.360Z,91.80
2022-11-16T17:30:20.890Z,91.80
2022-11-16T17:32:48.384Z,91.90
2022-11-16T17:35:15.900Z,91.80
2022-11-16T17:37:43.629Z,91.90
2022-11-16T17:40:11.704Z,91.80
2022-11-16T17:42:39.338Z,91.90
2022-11-16T17:45:07.090Z,92.00
2022-11-16T17:47:34.540Z,91.80
2022-11-16T17:50:02.207Z,91.90
2022-11-16T17:52:29.751Z,91.90
2022-11-16T17:54:57.175Z,92.00
2022-11-16T17:57:25.655Z,92.00
2022-11-16T17:59:53.198Z,92.20
2022-11-16T18:02:20.656Z,92.20
2022-11-16T18:04:51.024Z,92.30
2022-11-16T18:07:19.229Z,92.20
2022-11-16T18:09:46.731Z,92.10
2022-11-16T18:12:14.171Z,92.10
2022-11-16T18:14:42.479Z,92.10
2022-11-16T18:17:10.065Z,92.20
2022-11-16T18:19:37.566Z,92.20
2022-11-16T18:22:05.114Z,92.50
2022-11-16T18:24:32.616Z,92.50
2022-11-16T18:27:00.082Z,92.40
2022-11-16T18:29:27.614Z,92.50
2022-11-16T18:31:55.140Z,92.50
2022-11-16T18:34:22.649Z,92.30
2022-11-16T18:36:51.081Z,92.40
2022-11-16T18:39:18.574Z,92.20
2022-11-16T18:41:50.192Z,92.10
2022-11-16T18:44:21.968Z,92.20
2022-11-16T18:46:49.400Z,92.10
2022-11-16T18:49:17.138Z,92.10
2022-11-16T18:51:44.698Z,92.10
2022-11-16T18:54:12.279Z,91.90
2022-11-16T18:56:39.767Z,91.80
2022-11-16T18:59:07.267Z,91.80
2022-11-16T19:01:34.940Z,91.90
2022-11-16T19:04:03.364Z,91.90
2022-11-16T19:06:32.587Z,91.90
2022-11-16T19:09:00.220Z,91.80
2022-11-16T19:11:29.534Z,91.80
2022-11-16T19:13:58.168Z,91.90
2022-11-16T19:16:25.679Z,91.80
2022-11-16T19:18:53.419Z,91.70
2022-11-16T19:21:22.168Z,91.90
2022-11-16T19:23:51.194Z,91.70
2022-11-16T19:26:19.734Z,91.70
2022-11-16T19:28:48.209Z,91.80
2022-11-16T19:31:16.960Z,91.70
2022-11-16T19:33:45.038Z,91.70
2022-11-16T19:36:13.571Z,91.70
2022-11-16T19:38:41.285Z,91.60
2022-11-16T19:41:09.982Z,91.60
2022-11-16T19:43:37.700Z,91.50
2022-11-16T19:46:07.075Z,91.60
2022-11-16T19:48:34.599Z,91.60
2022-11-16T19:51:16.123Z,91.70
2022-11-16T19:53:43.623Z,91.90
2022-11-16T19:56:12.441Z,91.80
2022-11-16T19:58:39.974Z,91.70
2022-11-16T20:01:08.845Z,91.70
2022-11-16T20:03:38.591Z,91.70
2022-11-16T20:06:09.159Z,91.60
2022-11-16T20:08:37.739Z,91.60
2022-11-16T20:11:12.327Z,91.90
2022-11-16T20:13:40.007Z,91.80
2022-11-16T20:16:07.925Z,91.90
2022-11-16T20:18:35.527Z,92.10
2022-11-16T20:21:05.402Z,92.10
2022-11-16T20:23:36.338Z,91.90
2022-11-16T20:26:05.038Z,91.90
2022-11-16T20:28:36.301Z,91.90
2022-11-16T20:31:06.729Z,91.90
2022-11-16T20:33:35.038Z,92.20
2022-11-16T20:36:07.232Z,92.10
2022-11-16T20:38:35.354Z,92.00
2022-11-16T20:41:09.729Z,92.00
2022-11-16T20:43:39.522Z,92.20
2022-11-16T20:46:10.374Z,92.20
2022-11-16T20:48:38.458Z,92.20
2022-11-16T20:51:06.209Z,92.20
2022-11-16T20:53:34.283Z,92.20
2022-11-16T20:56:05.055Z,92.20
2022-11-16T20:58:32.602Z,92.20
2022-11-16T21:01:01.224Z,92.10
2022-11-16T21:03:29.217Z,92.10
2022-11-16T21:05:56.746Z,92.40
2022-11-16T21:08:27.097Z,92.40
2022-11-16T21:10:54.636Z,92.50
2022-11-16T21:13:40.704Z,92.40
2022-11-16T21:16:11.518Z,92.60
2022-11-16T21:18:39.633Z,92.50
2022-11-16T21:21:13.894Z,92.30
2022-11-16T21:23:43.354Z,92.30
2022-11-16T21:26:14.752Z,92.40
2022-11-16T21:28:44.935Z,92.40
2022-11-16T21:31:16.860Z,92.40
2022-11-16T21:33:45.158Z,92.40
2022-11-16T21:36:13.660Z,92.60
2022-11-16T21:38:41.325Z,92.60
2022-11-16T21:41:09.344Z,92.70
2022-11-16T21:43:37.253Z,92.60
2022-11-16T21:46:08.319Z,92.50
2022-11-16T21:48:36.007Z,92.60
2022-11-16T21:51:05.030Z,92.80
2022-11-16T21:53:33.384Z,92.60
2022-11-16T21:56:01.353Z,92.60
2022-11-16T21:58:28.921Z,92.60
2022-11-16T22:00:57.434Z,92.80
2022-11-16T22:03:25.615Z,92.50
2022-11-16T22:06:12.300Z,92.70
2022-11-16T22:08:40.147Z,92.90
2022-11-16T22:11:08.384Z,92.70
2022-11-16T22:13:36.536Z,92.70
2022-11-16T22:16:07.943Z,92.70
2022-11-16T22:18:35.574Z,92.60
2022-11-16T22:21:03.625Z,92.50
2022-11-16T22:23:31.652Z,92.70
2022-11-16T22:26:03.280Z,92.70
2022-11-16T22:28:31.489Z,92.70
2022-11-16T22:31:16.927Z,92.50
2022-11-16T22:33:44.406Z,92.60
2022-11-16T22:36:13.460Z,92.80
2022-11-16T22:38:41.717Z,92.70
2022-11-16T22:41:09.729Z,92.60
2022-11-16T22:43:37.790Z,92.70
2022-11-16T22:46:06.114Z,92.70
2022-11-16T22:48:35.351Z,92.70
2022-11-16T22:51:03.671Z,92.90
2022-11-16T22:53:31.218Z,93.00
2022-11-16T22:56:08.315Z,93.30
2022-11-16T22:58:36.169Z,92.90
2022-11-16T23:01:03.973Z,92.90
2022-11-16T23:03:31.648Z,92.90
2022-11-16T23:06:00.035Z,92.90
2022-11-16T23:08:27.854Z,92.70
2022-11-16T23:11:24.221Z,92.70
2022-11-16T23:14:10.764Z,92.80
2022-11-16T23:16:38.632Z,92.70
2022-11-16T23:19:25.264Z,92.70
2022-11-16T23:22:11.032Z,92.50
2022-11-16T23:24:56.937Z,92.60
2022-11-16T23:27:31.050Z,92.50
2022-11-16T23:29:59.469Z,92.70
2022-11-16T23:32:27.939Z,92.90
2022-11-16T23:34:55.393Z,92.70
2022-11-16T23:37:22.934Z,92.60
2022-11-16T23:39:50.404Z,92.90
2022-11-16T23:42:36.162Z,92.80
2022-11-16T23:45:03.982Z,92.80
2022-11-16T23:47:31.483Z,92.90
2022-11-16T23:49:58.938Z,92.80
2022-11-16T23:52:26.411Z,92.80
2022-11-16T23:54:53.889Z,92.70
2022-11-16T23:57:21.388Z,92.70
2022-11-16T23:59:48.879Z,92.90
